sensor_id;sensor_type;location;lat;lon;timestamp;P1;durP1;ratioP1;P2;durP2;ratioP2
4057;SDS011;2044;48.692;9.020;2022-11-20T00:01:16;8.07;;;4.40;;
4057;SDS011;2044;48.692;9.020;2022-11-20T00:03:44;7.90;;;4.10;;
4057;SDS011;2044;48.692;9.020;2022-11-20T00:06:13;6.60;;;4.27;;
4057;SDS011;2044;48.692;9.020;2022-11-20T00:08:42;5.90;;;4.17;;
4057;SDS011;2044;48.692;9.020;2022-11-20T00:11:09;5.27;;;4.00;;
4057;SDS011;2044;48.692;9.020;2022-11-20T00:13:37;6.70;;;4.07;;
4057;SDS011;2044;48.692;9.020;2022-11-20T00:16:06;7.40;;;4.53;;
4057;SDS011;2044;48.692;9.020;2022-11-20T00:18:35;5.60;;;3.70;;
4057;SDS011;2044;48.692;9.020;2022-11-20T00:21:03;7.80;;;4.50;;
4057;SDS011;2044;48.692;9.020;2022-11-20T00:23:32;7.00;;;4.73;;
4057;SDS011;2044;48.692;9.020;2022-11-20T00:26:01;6.30;;;3.90;;
4057;SDS011;2044;48.692;9.020;2022-11-20T00:28:29;5.27;;;3.83;;
4057;SDS011;2044;48.692;9.020;2022-11-20T00:30:59;6.57;;;3.50;;
4057;SDS011;2044;48.692;9.020;2022-11-20T00:33:28;4.83;;;4.00;;
4057;SDS011;2044;48.692;9.020;2022-11-20T00:35:58;4.50;;;3.30;;
4057;SDS011;2044;48.692;9.020;2022-11-20T00:38:26;5.70;;;3.70;;
4057;SDS011;2044;48.692;9.020;2022-11-20T00:40:55;7.63;;;4.00;;
4057;SDS011;2044;48.692;9.020;2022-11-20T00:43:22;6.27;;;3.53;;
4057;SDS011;2044;48.692;9.020;2022-11-20T00:45:49;7.87;;;3.90;;
4057;SDS011;2044;48.692;9.020;2022-11-20T00:48:16;4.87;;;3.50;;
4057;SDS011;2044;48.692;9.020;2022-11-20T00:50:43;6.67;;;4.13;;
4057;SDS011;2044;48.692;9.020;2022-11-20T00:53:09;5.77;;;3.67;;
4057;SDS011;2044;48.692;9.020;2022-11-20T00:55:36;6.40;;;4.17;;
4057;SDS011;2044;48.692;9.020;2022-11-20T00:58:04;6.40;;;3.97;;
4057;SDS011;2044;48.692;9.020;2022-11-20T01:00:31;6.40;;;3.93;;
4057;SDS011;2044;48.692;9.020;2022-11-20T01:02:58;6.70;;;4.00;;
4057;SDS011;2044;48.692;9.020;2022-11-20T01:05:25;7.83;;;4.13;;
4057;SDS011;2044;48.692;9.020;2022-11-20T01:07:51;7.20;;;4.67;;
4057;SDS011;2044;48.692;9.020;2022-11-20T01:10:18;5.93;;;4.37;;
4057;SDS011;2044;48.692;9.020;2022-11-20T01:12:45;6.80;;;4.97;;
4057;SDS011;2044;48.692;9.020;2022-11-20T01:15:34;7.73;;;3.80;;
4057;SDS011;2044;48.692;9.020;2022-11-20T01:18:01;6.60;;;4.43;;
4057;SDS011;2044;48.692;9.020;2022-11-20T01:20:28;6.70;;;4.70;;
4057;SDS011;2044;48.692;9.020;2022-11-20T01:22:55;6.70;;;3.67;;
4057;SDS011;2044;48.692;9.020;2022-11-20T01:25:22;7.10;;;3.70;;
4057;SDS011;2044;48.692;9.020;2022-11-20T01:27:48;9.60;;;4.50;;
4057;SDS011;2044;48.692;9.020;2022-11-20T01:30:15;6.47;;;3.87;;
4057;SDS011;2044;48.692;9.020;2022-11-20T01:32:43;7.73;;;3.83;;
4057;SDS011;2044;48.692;9.020;2022-11-20T01:35:10;3.50;;;2.67;;
4057;SDS011;2044;48.692;9.020;2022-11-20T01:37:37;7.00;;;3.90;;
4057;SDS011;2044;48.692;9.020;2022-11-20T01:40:04;5.80;;;3.70;;
4057;SDS011;2044;48.692;9.020;2022-11-20T01:42:32;5.77;;;3.13;;
4057;SDS011;2044;48.692;9.020;2022-11-20T01:48:30;4.40;;;3.30;;
4057;SDS011;2044;48.692;9.020;2022-11-20T01:51:02;5.40;;;3.57;;
4057;SDS011;2044;48.692;9.020;2022-11-20T01:53:31;7.60;;;3.23;;
4057;SDS011;2044;48.692;9.020;2022-11-20T01:56:01;5.00;;;3.40;;
4057;SDS011;2044;48.692;9.020;2022-11-20T01:58:32;6.80;;;3.50;;
4057;SDS011;2044;48.692;9.020;2022-11-20T02:01:02;4.37;;;3.27;;
4057;SDS011;2044;48.692;9.020;2022-11-20T02:03:31;5.00;;;3.20;;
4057;SDS011;2044;48.692;9.020;2022-11-20T02:06:01;5.53;;;3.40;;
4057;SDS011;2044;48.692;9.020;2022-11-20T02:08:32;7.33;;;4.00;;
4057;SDS011;2044;48.692;9.020;2022-11-20T02:11:01;4.80;;;2.90;;
4057;SDS011;2044;48.692;9.020;2022-11-20T02:13:27;4.40;;;2.90;;
4057;SDS011;2044;48.692;9.020;2022-11-20T02:16:10;4.60;;;2.77;;
4057;SDS011;2044;48.692;9.020;2022-11-20T02:22:07;6.57;;;3.60;;
4057;SDS011;2044;48.692;9.020;2022-11-20T02:24:40;8.73;;;3.43;;
4057;SDS011;2044;48.692;9.020;2022-11-20T02:27:10;4.93;;;3.20;;
4057;SDS011;2044;48.692;9.020;2022-11-20T02:29:39;6.60;;;3.47;;
4057;SDS011;2044;48.692;9.020;2022-11-20T02:32:17;5.40;;;3.63;;
4057;SDS011;2044;48.692;9.020;2022-11-20T02:34:45;6.33;;;3.43;;
4057;SDS011;2044;48.692;9.020;2022-11-20T02:37:11;6.90;;;3.87;;
4057;SDS011;2044;48.692;9.020;2022-11-20T02:39:41;6.30;;;3.80;;
4057;SDS011;2044;48.692;9.020;2022-11-20T02:42:09;6.50;;;4.30;;
4057;SDS011;2044;48.692;9.020;2022-11-20T02:44:35;5.40;;;4.37;;
4057;SDS011;2044;48.692;9.020;2022-11-20T02:47:02;9.07;;;5.00;;
4057;SDS011;2044;48.692;9.020;2022-11-20T02:49:29;6.57;;;3.67;;
4057;SDS011;2044;48.692;9.020;2022-11-20T02:51:56;7.80;;;4.93;;
4057;SDS011;2044;48.692;9.020;2022-11-20T02:54:23;10.00;;;5.60;;
4057;SDS011;2044;48.692;9.020;2022-11-20T02:56:52;8.80;;;4.80;;
4057;SDS011;2044;48.692;9.020;2022-11-20T02:59:18;6.80;;;4.27;;
4057;SDS011;2044;48.692;9.020;2022-11-20T03:01:45;10.70;;;5.10;;
4057;SDS011;2044;48.692;9.020;2022-11-20T03:04:12;7.50;;;4.63;;
4057;SDS011;2044;48.692;9.020;2022-11-20T03:06:39;9.57;;;5.73;;
4057;SDS011;2044;48.692;9.020;2022-11-20T03:09:05;10.13;;;4.40;;
4057;SDS011;2044;48.692;9.020;2022-11-20T03:11:32;9.00;;;4.90;;
4057;SDS011;2044;48.692;9.020;2022-11-20T03:14:02;8.33;;;4.77;;
4057;SDS011;2044;48.692;9.020;2022-11-20T03:16:30;6.83;;;4.87;;
4057;SDS011;2044;48.692;9.020;2022-11-20T03:18:57;8.60;;;5.00;;
4057;SDS011;2044;48.692;9.020;2022-11-20T03:21:23;8.57;;;5.30;;
4057;SDS011;2044;48.692;9.020;2022-11-20T03:23:50;10.30;;;6.00;;
4057;SDS011;2044;48.692;9.020;2022-11-20T03:26:19;8.00;;;4.57;;
4057;SDS011;2044;48.692;9.020;2022-11-20T03:28:48;10.43;;;5.27;;
4057;SDS011;2044;48.692;9.020;2022-11-20T03:31:19;7.97;;;4.67;;
4057;SDS011;2044;48.692;9.020;2022-11-20T03:33:47;9.40;;;5.23;;
4057;SDS011;2044;48.692;9.020;2022-11-20T03:36:14;9.80;;;5.23;;
4057;SDS011;2044;48.692;9.020;2022-11-20T03:38:42;6.97;;;4.57;;
4057;SDS011;2044;48.692;9.020;2022-11-20T03:41:09;7.00;;;4.43;;
4057;SDS011;2044;48.692;9.020;2022-11-20T03:43:37;9.27;;;5.23;;
4057;SDS011;2044;48.692;9.020;2022-11-20T03:46:05;7.07;;;4.70;;
4057;SDS011;2044;48.692;9.020;2022-11-20T03:48:33;9.33;;;5.00;;
4057;SDS011;2044;48.692;9.020;2022-11-20T03:51:07;8.80;;;4.97;;
4057;SDS011;2044;48.692;9.020;2022-11-20T03:53:35;9.70;;;5.67;;
4057;SDS011;2044;48.692;9.020;2022-11-20T03:56:02;10.90;;;5.87;;
4057;SDS011;2044;48.692;9.020;2022-11-20T03:58:30;8.20;;;4.90;;
4057;SDS011;2044;48.692;9.020;2022-11-20T04:00:56;7.47;;;4.40;;
4057;SDS011;2044;48.692;9.020;2022-11-20T04:03:23;8.70;;;5.90;;
4057;SDS011;2044;48.692;9.020;2022-11-20T04:05:51;6.20;;;4.50;;
4057;SDS011;2044;48.692;9.020;2022-11-20T04:08:18;6.97;;;4.33;;
4057;SDS011;2044;48.692;9.020;2022-11-20T04:10:45;7.23;;;5.27;;
4057;SDS011;2044;48.692;9.020;2022-11-20T04:13:11;8.53;;;5.23;;
4057;SDS011;2044;48.692;9.020;2022-11-20T04:15:38;5.70;;;4.40;;
4057;SDS011;2044;48.692;9.020;2022-11-20T04:18:05;8.47;;;4.13;;
4057;SDS011;2044;48.692;9.020;2022-11-20T04:20:31;5.23;;;3.77;;
4057;SDS011;2044;48.692;9.020;2022-11-20T04:23:00;7.50;;;4.00;;
4057;SDS011;2044;48.692;9.020;2022-11-20T04:25:27;6.73;;;4.00;;
4057;SDS011;2044;48.692;9.020;2022-11-20T04:27:54;6.40;;;4.13;;
4057;SDS011;2044;48.692;9.020;2022-11-20T04:30:21;7.17;;;4.43;;
4057;SDS011;2044;48.692;9.020;2022-11-20T04:32:47;7.60;;;4.63;;
4057;SDS011;2044;48.692;9.020;2022-11-20T04:35:15;6.53;;;4.17;;
4057;SDS011;2044;48.692;9.020;2022-11-20T04:37:41;6.70;;;4.60;;
4057;SDS011;2044;48.692;9.020;2022-11-20T04:40:10;7.20;;;3.73;;
4057;SDS011;2044;48.692;9.020;2022-11-20T04:42:37;5.30;;;3.83;;
4057;SDS011;2044;48.692;9.020;2022-11-20T04:45:04;7.20;;;4.40;;
4057;SDS011;2044;48.692;9.020;2022-11-20T04:47:32;7.23;;;4.77;;
4057;SDS011;2044;48.692;9.020;2022-11-20T04:49:59;7.40;;;4.90;;
4057;SDS011;2044;48.692;9.020;2022-11-20T04:52:25;7.70;;;3.97;;
4057;SDS011;2044;48.692;9.020;2022-11-20T04:54:52;6.33;;;4.27;;
4057;SDS011;2044;48.692;9.020;2022-11-20T04:57:20;7.30;;;3.90;;
4057;SDS011;2044;48.692;9.020;2022-11-20T04:59:47;7.77;;;5.00;;
4057;SDS011;2044;48.692;9.020;2022-11-20T05:02:14;4.40;;;3.50;;
4057;SDS011;2044;48.692;9.020;2022-11-20T05:04:41;7.17;;;4.53;;
4057;SDS011;2044;48.692;9.020;2022-11-20T05:07:08;7.53;;;4.70;;
4057;SDS011;2044;48.692;9.020;2022-11-20T05:09:34;6.50;;;4.30;;
4057;SDS011;2044;48.692;9.020;2022-11-20T05:12:01;7.47;;;4.60;;
4057;SDS011;2044;48.692;9.020;2022-11-20T05:14:30;7.30;;;4.20;;
4057;SDS011;2044;48.692;9.020;2022-11-20T05:16:56;7.50;;;4.63;;
4057;SDS011;2044;48.692;9.020;2022-11-20T05:19:23;6.53;;;4.70;;
4057;SDS011;2044;48.692;9.020;2022-11-20T05:21:50;5.87;;;4.30;;
4057;SDS011;2044;48.692;9.020;2022-11-20T05:24:17;6.00;;;3.77;;
4057;SDS011;2044;48.692;9.020;2022-11-20T05:26:44;10.00;;;4.40;;
4057;SDS011;2044;48.692;9.020;2022-11-20T05:29:10;7.40;;;4.07;;
4057;SDS011;2044;48.692;9.020;2022-11-20T05:31:40;4.70;;;3.30;;
4057;SDS011;2044;48.692;9.020;2022-11-20T05:34:07;7.70;;;4.30;;
4057;SDS011;2044;48.692;9.020;2022-11-20T05:36:33;5.37;;;3.90;;
4057;SDS011;2044;48.692;9.020;2022-11-20T05:39:00;9.60;;;4.37;;
4057;SDS011;2044;48.692;9.020;2022-11-20T05:41:27;5.93;;;3.43;;
4057;SDS011;2044;48.692;9.020;2022-11-20T05:43:55;6.63;;;3.80;;
4057;SDS011;2044;48.692;9.020;2022-11-20T05:46:23;5.70;;;3.70;;
4057;SDS011;2044;48.692;9.020;2022-11-20T05:48:51;7.90;;;3.77;;
4057;SDS011;2044;48.692;9.020;2022-11-20T05:51:18;3.93;;;3.00;;
4057;SDS011;2044;48.692;9.020;2022-11-20T05:53:45;3.90;;;3.03;;
4057;SDS011;2044;48.692;9.020;2022-11-20T05:56:13;4.80;;;3.10;;
4057;SDS011;2044;48.692;9.020;2022-11-20T05:58:41;4.90;;;3.10;;
4057;SDS011;2044;48.692;9.020;2022-11-20T06:01:09;8.13;;;3.30;;
4057;SDS011;2044;48.692;9.020;2022-11-20T06:03:38;3.40;;;3.10;;
4057;SDS011;2044;48.692;9.020;2022-11-20T06:06:08;6.20;;;3.80;;
4057;SDS011;2044;48.692;9.020;2022-11-20T06:08:35;4.37;;;3.57;;
4057;SDS011;2044;48.692;9.020;2022-11-20T06:11:03;4.40;;;3.20;;
4057;SDS011;2044;48.692;9.020;2022-11-20T06:13:30;5.07;;;2.90;;
4057;SDS011;2044;48.692;9.020;2022-11-20T06:15:57;4.27;;;2.30;;
4057;SDS011;2044;48.692;9.020;2022-11-20T06:18:25;3.67;;;2.63;;
4057;SDS011;2044;48.692;9.020;2022-11-20T06:20:58;4.70;;;3.47;;
4057;SDS011;2044;48.692;9.020;2022-11-20T06:23:28;6.97;;;3.70;;
4057;SDS011;2044;48.692;9.020;2022-11-20T06:25:56;3.60;;;2.80;;
4057;SDS011;2044;48.692;9.020;2022-11-20T06:28:23;3.73;;;3.10;;
4057;SDS011;2044;48.692;9.020;2022-11-20T06:30:50;5.23;;;3.70;;
4057;SDS011;2044;48.692;9.020;2022-11-20T06:33:17;7.27;;;3.87;;
4057;SDS011;2044;48.692;9.020;2022-11-20T06:35:44;5.10;;;3.67;;
4057;SDS011;2044;48.692;9.020;2022-11-20T06:38:11;6.00;;;4.00;;
4057;SDS011;2044;48.692;9.020;2022-11-20T06:40:40;4.60;;;2.80;;
4057;SDS011;2044;48.692;9.020;2022-11-20T06:43:08;4.50;;;2.90;;
4057;SDS011;2044;48.692;9.020;2022-11-20T06:45:35;2.90;;;2.30;;
4057;SDS011;2044;48.692;9.020;2022-11-20T06:48:02;4.13;;;3.20;;
4057;SDS011;2044;48.692;9.020;2022-11-20T06:50:29;3.10;;;2.90;;
4057;SDS011;2044;48.692;9.020;2022-11-20T06:52:56;5.30;;;3.03;;
4057;SDS011;2044;48.692;9.020;2022-11-20T06:55:26;3.57;;;2.47;;
4057;SDS011;2044;48.692;9.020;2022-11-20T06:57:54;5.33;;;3.30;;
4057;SDS011;2044;48.692;9.020;2022-11-20T07:00:21;3.87;;;2.60;;
4057;SDS011;2044;48.692;9.020;2022-11-20T07:02:48;3.30;;;2.70;;
4057;SDS011;2044;48.692;9.020;2022-11-20T07:05:15;3.80;;;2.40;;
4057;SDS011;2044;48.692;9.020;2022-11-20T07:07:42;4.53;;;3.23;;
4057;SDS011;2044;48.692;9.020;2022-11-20T07:10:09;3.33;;;1.97;;
4057;SDS011;2044;48.692;9.020;2022-11-20T07:12:36;5.73;;;3.20;;
4057;SDS011;2044;48.692;9.020;2022-11-20T07:15:05;6.33;;;2.67;;
4057;SDS011;2044;48.692;9.020;2022-11-20T07:17:33;4.40;;;2.77;;
4057;SDS011;2044;48.692;9.020;2022-11-20T07:19:59;3.10;;;2.80;;
4057;SDS011;2044;48.692;9.020;2022-11-20T07:22:26;5.40;;;2.60;;
4057;SDS011;2044;48.692;9.020;2022-11-20T07:24:53;3.00;;;2.10;;
4057;SDS011;2044;48.692;9.020;2022-11-20T07:27:20;3.70;;;2.40;;
4057;SDS011;2044;48.692;9.020;2022-11-20T07:29:47;4.30;;;2.60;;
4057;SDS011;2044;48.692;9.020;2022-11-20T07:32:15;3.23;;;2.73;;
4057;SDS011;2044;48.692;9.020;2022-11-20T07:34:42;6.57;;;3.20;;
4057;SDS011;2044;48.692;9.020;2022-11-20T07:37:09;3.93;;;2.80;;
4057;SDS011;2044;48.692;9.020;2022-11-20T07:39:35;4.80;;;2.60;;
4057;SDS011;2044;48.692;9.020;2022-11-20T07:42:05;3.07;;;2.43;;
4057;SDS011;2044;48.692;9.020;2022-11-20T07:44:32;4.50;;;2.80;;
4057;SDS011;2044;48.692;9.020;2022-11-20T07:46:59;2.67;;;2.10;;
4057;SDS011;2044;48.692;9.020;2022-11-20T07:49:28;3.63;;;2.20;;
4057;SDS011;2044;48.692;9.020;2022-11-20T08:02:53;2.60;;;2.03;;
4057;SDS011;2044;48.692;9.020;2022-11-20T08:05:21;3.27;;;1.90;;
4057;SDS011;2044;48.692;9.020;2022-11-20T08:07:48;2.73;;;1.90;;
4057;SDS011;2044;48.692;9.020;2022-11-20T08:10:16;3.13;;;1.83;;
4057;SDS011;2044;48.692;9.020;2022-11-20T08:12:43;4.80;;;2.40;;
4057;SDS011;2044;48.692;9.020;2022-11-20T08:15:28;2.03;;;1.90;;
4057;SDS011;2044;48.692;9.020;2022-11-20T08:17:59;2.57;;;2.07;;
4057;SDS011;2044;48.692;9.020;2022-11-20T08:20:28;1.87;;;1.73;;
4057;SDS011;2044;48.692;9.020;2022-11-20T08:22:57;2.07;;;1.60;;
4057;SDS011;2044;48.692;9.020;2022-11-20T08:25:25;3.20;;;1.93;;
4057;SDS011;2044;48.692;9.020;2022-11-20T08:27:51;4.13;;;2.43;;
4057;SDS011;2044;48.692;9.020;2022-11-20T08:30:18;2.00;;;1.90;;
4057;SDS011;2044;48.692;9.020;2022-11-20T08:32:46;3.60;;;2.37;;
4057;SDS011;2044;48.692;9.020;2022-11-20T08:35:13;2.60;;;2.00;;
4057;SDS011;2044;48.692;9.020;2022-11-20T08:37:41;3.20;;;2.60;;
4057;SDS011;2044;48.692;9.020;2022-11-20T08:40:09;2.93;;;2.47;;
4057;SDS011;2044;48.692;9.020;2022-11-20T08:42:37;3.03;;;2.20;;
4057;SDS011;2044;48.692;9.020;2022-11-20T08:45:04;1.70;;;1.60;;
4057;SDS011;2044;48.692;9.020;2022-11-20T08:47:31;4.00;;;2.13;;
4057;SDS011;2044;48.692;9.020;2022-11-20T08:49:58;2.83;;;2.03;;
4057;SDS011;2044;48.692;9.020;2022-11-20T08:52:25;2.60;;;1.87;;
4057;SDS011;2044;48.692;9.020;2022-11-20T08:54:54;2.83;;;1.97;;
4057;SDS011;2044;48.692;9.020;2022-11-20T08:57:20;3.57;;;3.20;;
4057;SDS011;2044;48.692;9.020;2022-11-20T08:59:48;2.60;;;1.97;;
4057;SDS011;2044;48.692;9.020;2022-11-20T09:02:15;2.40;;;1.63;;
4057;SDS011;2044;48.692;9.020;2022-11-20T09:04:42;1.60;;;1.20;;
4057;SDS011;2044;48.692;9.020;2022-11-20T09:07:09;2.07;;;1.87;;
4057;SDS011;2044;48.692;9.020;2022-11-20T09:09:36;4.67;;;2.17;;
4057;SDS011;2044;48.692;9.020;2022-11-20T09:12:04;3.23;;;2.07;;
4057;SDS011;2044;48.692;9.020;2022-11-20T09:14:31;2.37;;;1.80;;
4057;SDS011;2044;48.692;9.020;2022-11-20T09:16:58;1.70;;;1.60;;
4057;SDS011;2044;48.692;9.020;2022-11-20T09:19:26;2.67;;;1.93;;
4057;SDS011;2044;48.692;9.020;2022-11-20T09:21:52;1.80;;;1.17;;
4057;SDS011;2044;48.692;9.020;2022-11-20T09:24:19;1.40;;;1.30;;
4057;SDS011;2044;48.692;9.020;2022-11-20T09:26:46;1.60;;;1.50;;
4057;SDS011;2044;48.692;9.020;2022-11-20T09:29:15;1.90;;;0.90;;
4057;SDS011;2044;48.692;9.020;2022-11-20T09:31:41;1.73;;;1.10;;
4057;SDS011;2044;48.692;9.020;2022-11-20T09:34:09;1.00;;;0.90;;
4057;SDS011;2044;48.692;9.020;2022-11-20T09:36:36;1.27;;;0.90;;
4057;SDS011;2044;48.692;9.020;2022-11-20T09:39:03;1.23;;;0.90;;
4057;SDS011;2044;48.692;9.020;2022-11-20T09:41:36;1.10;;;0.90;;
4057;SDS011;2044;48.692;9.020;2022-11-20T09:44:23;1.50;;;0.77;;
4057;SDS011;2044;48.692;9.020;2022-11-20T09:47:08;1.10;;;1.00;;
4057;SDS011;2044;48.692;9.020;2022-11-20T09:49:53;1.27;;;0.90;;
4057;SDS011;2044;48.692;9.020;2022-11-20T09:52:31;0.90;;;0.90;;
4057;SDS011;2044;48.692;9.020;2022-11-20T09:55:00;0.80;;;0.80;;
4057;SDS011;2044;48.692;9.020;2022-11-20T09:57:30;1.57;;;0.90;;
4057;SDS011;2044;48.692;9.020;2022-11-20T10:00:00;0.90;;;0.80;;
4057;SDS011;2044;48.692;9.020;2022-11-20T10:02:35;1.23;;;1.10;;
4057;SDS011;2044;48.692;9.020;2022-11-20T10:05:06;1.00;;;0.90;;
4057;SDS011;2044;48.692;9.020;2022-11-20T10:07:37;1.23;;;1.10;;
4057;SDS011;2044;48.692;9.020;2022-11-20T10:10:13;0.90;;;0.70;;
4057;SDS011;2044;48.692;9.020;2022-11-20T10:12:46;1.10;;;1.00;;
4057;SDS011;2044;48.692;9.020;2022-11-20T10:15:24;1.13;;;0.90;;
4057;SDS011;2044;48.692;9.020;2022-11-20T10:17:55;0.80;;;0.80;;
4057;SDS011;2044;48.692;9.020;2022-11-20T10:20:27;1.20;;;0.83;;
4057;SDS011;2044;48.692;9.020;2022-11-20T10:23:00;0.70;;;0.60;;
4057;SDS011;2044;48.692;9.020;2022-11-20T10:25:46;1.23;;;0.90;;
4057;SDS011;2044;48.692;9.020;2022-11-20T10:28:19;1.70;;;1.20;;
4057;SDS011;2044;48.692;9.020;2022-11-20T10:30:52;1.80;;;1.30;;
4057;SDS011;2044;48.692;9.020;2022-11-20T10:33:22;0.90;;;0.90;;
4057;SDS011;2044;48.692;9.020;2022-11-20T10:35:50;1.10;;;1.00;;
4057;SDS011;2044;48.692;9.020;2022-11-20T10:38:23;1.00;;;0.93;;
4057;SDS011;2044;48.692;9.020;2022-11-20T10:40:52;0.97;;;0.90;;
4057;SDS011;2044;48.692;9.020;2022-11-20T10:44:01;1.77;;;1.20;;
4057;SDS011;2044;48.692;9.020;2022-11-20T10:46:34;2.20;;;1.30;;
4057;SDS011;2044;48.692;9.020;2022-11-20T10:49:04;1.07;;;0.97;;
4057;SDS011;2044;48.692;9.020;2022-11-20T10:51:35;1.33;;;1.23;;
4057;SDS011;2044;48.692;9.020;2022-11-20T10:54:07;1.40;;;1.00;;
4057;SDS011;2044;48.692;9.020;2022-11-20T10:56:38;1.23;;;1.13;;
4057;SDS011;2044;48.692;9.020;2022-11-20T11:01:53;1.37;;;1.23;;
4057;SDS011;2044;48.692;9.020;2022-11-20T11:04:28;3.40;;;1.63;;
4057;SDS011;2044;48.692;9.020;2022-11-20T11:06:58;1.60;;;1.50;;
4057;SDS011;2044;48.692;9.020;2022-11-20T11:09:32;3.00;;;1.70;;
4057;SDS011;2044;48.692;9.020;2022-11-20T11:12:01;1.27;;;1.17;;
4057;SDS011;2044;48.692;9.020;2022-11-20T11:14:28;1.37;;;1.20;;
4057;SDS011;2044;48.692;9.020;2022-11-20T11:16:57;1.43;;;1.33;;
4057;SDS011;2044;48.692;9.020;2022-11-20T11:19:24;1.10;;;1.00;;
4057;SDS011;2044;48.692;9.020;2022-11-20T11:21:52;1.50;;;1.40;;
4057;SDS011;2044;48.692;9.020;2022-11-20T11:24:21;2.03;;;1.67;;
4057;SDS011;2044;48.692;9.020;2022-11-20T11:26:55;1.60;;;1.50;;
4057;SDS011;2044;48.692;9.020;2022-11-20T11:29:23;3.57;;;1.87;;
4057;SDS011;2044;48.692;9.020;2022-11-20T11:32:02;3.13;;;1.40;;
4057;SDS011;2044;48.692;9.020;2022-11-20T11:34:31;1.90;;;1.43;;
4057;SDS011;2044;48.692;9.020;2022-11-20T11:36:58;2.53;;;1.90;;
4057;SDS011;2044;48.692;9.020;2022-11-20T11:39:26;2.10;;;1.90;;
4057;SDS011;2044;48.692;9.020;2022-11-20T11:41:54;2.13;;;1.43;;
4057;SDS011;2044;48.692;9.020;2022-11-20T11:44:21;2.53;;;1.83;;
4057;SDS011;2044;48.692;9.020;2022-11-20T11:47:12;2.00;;;1.40;;
4057;SDS011;2044;48.692;9.020;2022-11-20T11:49:47;1.67;;;1.40;;
4057;SDS011;2044;48.692;9.020;2022-11-20T11:52:15;2.40;;;1.60;;
4057;SDS011;2044;48.692;9.020;2022-11-20T11:54:45;2.00;;;1.80;;
4057;SDS011;2044;48.692;9.020;2022-11-20T11:57:17;2.43;;;1.40;;
4057;SDS011;2044;48.692;9.020;2022-11-20T11:59:55;2.80;;;1.47;;
4057;SDS011;2044;48.692;9.020;2022-11-20T12:02:29;1.30;;;1.20;;
4057;SDS011;2044;48.692;9.020;2022-11-20T12:04:57;2.77;;;1.57;;
4057;SDS011;2044;48.692;9.020;2022-11-20T12:07:29;1.63;;;1.53;;
4057;SDS011;2044;48.692;9.020;2022-11-20T12:10:05;2.73;;;2.40;;
4057;SDS011;2044;48.692;9.020;2022-11-20T12:12:34;2.97;;;2.73;;
4057;SDS011;2044;48.692;9.020;2022-11-20T12:15:03;2.53;;;2.40;;
4057;SDS011;2044;48.692;9.020;2022-11-20T12:17:35;2.63;;;2.43;;
4057;SDS011;2044;48.692;9.020;2022-11-20T12:20:02;3.53;;;3.27;;
4057;SDS011;2044;48.692;9.020;2022-11-20T12:22:31;2.40;;;2.20;;
4057;SDS011;2044;48.692;9.020;2022-11-20T12:25:03;1.97;;;1.87;;
4057;SDS011;2044;48.692;9.020;2022-11-20T12:27:36;2.10;;;1.80;;
4057;SDS011;2044;48.692;9.020;2022-11-20T12:30:07;1.80;;;1.40;;
4057;SDS011;2044;48.692;9.020;2022-11-20T12:32:40;2.00;;;1.60;;
4057;SDS011;2044;48.692;9.020;2022-11-20T12:35:25;5.50;;;1.60;;
4057;SDS011;2044;48.692;9.020;2022-11-20T12:38:06;1.83;;;1.73;;
4057;SDS011;2044;48.692;9.020;2022-11-20T12:40:59;2.00;;;1.90;;
4057;SDS011;2044;48.692;9.020;2022-11-20T12:43:33;4.00;;;2.43;;
4057;SDS011;2044;48.692;9.020;2022-11-20T12:46:23;2.17;;;2.07;;
4057;SDS011;2044;48.692;9.020;2022-11-20T12:49:02;2.53;;;2.33;;
4057;SDS011;2044;48.692;9.020;2022-11-20T12:51:39;2.40;;;1.73;;
4057;SDS011;2044;48.692;9.020;2022-11-20T12:54:25;2.30;;;2.10;;
4057;SDS011;2044;48.692;9.020;2022-11-20T12:57:13;2.10;;;2.00;;
4057;SDS011;2044;48.692;9.020;2022-11-20T12:59:51;2.80;;;1.90;;
4057;SDS011;2044;48.692;9.020;2022-11-20T13:02:27;1.83;;;1.73;;
4057;SDS011;2044;48.692;9.020;2022-11-20T13:05:06;2.00;;;1.90;;
4057;SDS011;2044;48.692;9.020;2022-11-20T13:07:45;2.03;;;1.93;;
4057;SDS011;2044;48.692;9.020;2022-11-20T13:10:18;2.50;;;2.30;;
4057;SDS011;2044;48.692;9.020;2022-11-20T13:12:51;3.30;;;3.00;;
4057;SDS011;2044;48.692;9.020;2022-11-20T13:15:27;2.90;;;2.70;;
4057;SDS011;2044;48.692;9.020;2022-11-20T13:18:10;3.43;;;3.20;;
4057;SDS011;2044;48.692;9.020;2022-11-20T13:20:42;2.60;;;2.50;;
4057;SDS011;2044;48.692;9.020;2022-11-20T13:23:10;2.20;;;2.10;;
4057;SDS011;2044;48.692;9.020;2022-11-20T13:25:48;2.20;;;1.83;;
4057;SDS011;2044;48.692;9.020;2022-11-20T13:28:27;2.80;;;2.60;;
4057;SDS011;2044;48.692;9.020;2022-11-20T13:30:56;2.20;;;2.10;;
4057;SDS011;2044;48.692;9.020;2022-11-20T13:33:26;2.40;;;2.20;;
4057;SDS011;2044;48.692;9.020;2022-11-20T13:35:57;1.93;;;1.83;;
4057;SDS011;2044;48.692;9.020;2022-11-20T13:38:25;1.93;;;1.77;;
4057;SDS011;2044;48.692;9.020;2022-11-20T13:40:53;1.80;;;1.60;;
4057;SDS011;2044;48.692;9.020;2022-11-20T13:43:22;2.20;;;1.40;;
4057;SDS011;2044;48.692;9.020;2022-11-20T13:45:54;2.03;;;1.93;;
4057;SDS011;2044;48.692;9.020;2022-11-20T13:48:23;3.87;;;1.60;;
4057;SDS011;2044;48.692;9.020;2022-11-20T13:50:55;1.70;;;1.10;;
4057;SDS011;2044;48.692;9.020;2022-11-20T13:53:35;1.30;;;1.20;;
4057;SDS011;2044;48.692;9.020;2022-11-20T13:56:21;1.57;;;1.47;;
4057;SDS011;2044;48.692;9.020;2022-11-20T13:58:59;1.67;;;1.40;;
4057;SDS011;2044;48.692;9.020;2022-11-20T14:01:37;2.60;;;1.50;;
4057;SDS011;2044;48.692;9.020;2022-11-20T14:04:06;2.60;;;1.67;;
4057;SDS011;2044;48.692;9.020;2022-11-20T14:06:39;1.60;;;1.00;;
4057;SDS011;2044;48.692;9.020;2022-11-20T14:09:10;1.33;;;1.23;;
4057;SDS011;2044;48.692;9.020;2022-11-20T14:11:45;1.50;;;1.40;;
4057;SDS011;2044;48.692;9.020;2022-11-20T14:14:13;1.20;;;1.10;;
4057;SDS011;2044;48.692;9.020;2022-11-20T14:16:42;6.00;;;1.20;;
4057;SDS011;2044;48.692;9.020;2022-11-20T14:22:10;1.20;;;1.10;;
4057;SDS011;2044;48.692;9.020;2022-11-20T14:24:43;1.83;;;1.10;;
4057;SDS011;2044;48.692;9.020;2022-11-20T14:27:11;3.23;;;1.30;;
4057;SDS011;2044;48.692;9.020;2022-11-20T14:29:40;1.30;;;1.20;;
4057;SDS011;2044;48.692;9.020;2022-11-20T14:32:09;2.70;;;1.40;;
4057;SDS011;2044;48.692;9.020;2022-11-20T14:34:37;1.30;;;1.20;;
4057;SDS011;2044;48.692;9.020;2022-11-20T14:37:09;1.53;;;0.90;;
4057;SDS011;2044;48.692;9.020;2022-11-20T14:39:41;2.00;;;1.60;;
4057;SDS011;2044;48.692;9.020;2022-11-20T14:42:14;1.37;;;1.27;;
4057;SDS011;2044;48.692;9.020;2022-11-20T14:44:42;1.67;;;1.50;;
4057;SDS011;2044;48.692;9.020;2022-11-20T14:47:11;4.13;;;1.60;;
4057;SDS011;2044;48.692;9.020;2022-11-20T14:49:44;1.53;;;1.43;;
4057;SDS011;2044;48.692;9.020;2022-11-20T14:52:14;2.23;;;1.40;;
4057;SDS011;2044;48.692;9.020;2022-11-20T14:54:44;2.03;;;1.37;;
4057;SDS011;2044;48.692;9.020;2022-11-20T14:57:22;1.57;;;1.47;;
4057;SDS011;2044;48.692;9.020;2022-11-20T14:59:51;2.27;;;1.53;;
4057;SDS011;2044;48.692;9.020;2022-11-20T15:02:30;1.23;;;1.13;;
4057;SDS011;2044;48.692;9.020;2022-11-20T15:04:57;1.30;;;1.20;;
4057;SDS011;2044;48.692;9.020;2022-11-20T15:07:30;1.23;;;1.13;;
4057;SDS011;2044;48.692;9.020;2022-11-20T15:09:59;1.37;;;1.10;;
4057;SDS011;2044;48.692;9.020;2022-11-20T15:12:29;3.00;;;1.90;;
4057;SDS011;2044;48.692;9.020;2022-11-20T15:14:57;2.90;;;1.80;;
4057;SDS011;2044;48.692;9.020;2022-11-20T15:17:24;1.97;;;1.00;;
4057;SDS011;2044;48.692;9.020;2022-11-20T15:19:51;3.17;;;1.53;;
4057;SDS011;2044;48.692;9.020;2022-11-20T15:22:19;1.60;;;1.50;;
4057;SDS011;2044;48.692;9.020;2022-11-20T15:24:47;2.13;;;1.30;;
4057;SDS011;2044;48.692;9.020;2022-11-20T15:27:13;7.60;;;1.10;;
4057;SDS011;2044;48.692;9.020;2022-11-20T15:29:41;3.23;;;1.67;;
4057;SDS011;2044;48.692;9.020;2022-11-20T15:32:08;1.37;;;1.27;;
4057;SDS011;2044;48.692;9.020;2022-11-20T15:34:35;5.50;;;1.60;;
4057;SDS011;2044;48.692;9.020;2022-11-20T15:37:01;2.43;;;1.33;;
4057;SDS011;2044;48.692;9.020;2022-11-20T15:39:28;1.67;;;1.27;;
4057;SDS011;2044;48.692;9.020;2022-11-20T15:41:57;1.23;;;1.00;;
4057;SDS011;2044;48.692;9.020;2022-11-20T15:44:23;3.43;;;1.53;;
4057;SDS011;2044;48.692;9.020;2022-11-20T15:46:50;2.33;;;2.13;;
4057;SDS011;2044;48.692;9.020;2022-11-20T15:49:17;2.40;;;1.70;;
4057;SDS011;2044;48.692;9.020;2022-11-20T15:51:47;2.70;;;2.10;;
4057;SDS011;2044;48.692;9.020;2022-11-20T15:54:15;2.27;;;2.07;;